TNCE METAR and TAF | Updated Today

TNCE METAR

F. D. Roosevelt Airport

Observation time: 17 min. ago

TNCE 061955Z AUTO 07014KT //// // ///////// 27/20 Q1017 RE//

Need help? Read our tutorial on how to read METARs or read the parsed version below.

F. D. Roosevelt Airport (TNCE) METAR

  • Weather conditions on Mon, 06 Feb 2023 19:55:00 +0000 (17 min. ago):
  • Present conditions: Dry
  • Clouds: Clear skies
  • Visibility:
  • Wind: 70 degrees at 14 knots
  • Temperature: 27 celsius
  • Dew point: 20 celsius
  • Pressure: 1017 millibars
  • Remarks: None


Useful to know...